sensor_id;sensor_type;location;lat;lon;timestamp;pressure;altitude;pressure_sealevel;temperature;humidity
51123;BME280;37162;41.724;13.346;2023-01-30T00:00:27;97060.00;;;15.43;56.67
51123;BME280;37162;41.724;13.346;2023-01-30T00:02:52;97044.03;;;15.29;56.81
51123;BME280;37162;41.724;13.346;2023-01-30T00:05:17;97049.56;;;15.34;56.87
51123;BME280;37162;41.724;13.346;2023-01-30T00:07:43;97042.56;;;15.33;56.86
51123;BME280;37162;41.724;13.346;2023-01-30T00:10:09;97042.34;;;15.35;57.11
51123;BME280;37162;41.724;13.346;2023-01-30T00:12:34;97055.09;;;15.40;56.73
51123;BME280;37162;41.724;13.346;2023-01-30T00:15:00;97004.44;;;15.06;56.95
51123;BME280;37162;41.724;13.346;2023-01-30T00:17:25;97055.91;;;15.40;56.93
51123;BME280;37162;41.724;13.346;2023-01-30T00:19:51;97002.19;;;15.03;56.72
51123;BME280;37162;41.724;13.346;2023-01-30T00:22:16;97057.78;;;15.40;56.68
51123;BME280;37162;41.724;13.346;2023-01-30T00:24:42;97056.13;;;15.39;56.44
51123;BME280;37162;41.724;13.346;2023-01-30T00:27:07;97051.59;;;15.39;56.60
51123;BME280;37162;41.724;13.346;2023-01-30T00:29:32;97047.91;;;15.33;56.41
51123;BME280;37162;41.724;13.346;2023-01-30T00:31:58;97054.47;;;15.38;56.30
51123;BME280;37162;41.724;13.346;2023-01-30T00:34:23;97051.81;;;15.38;56.30
51123;BME280;37162;41.724;13.346;2023-01-30T00:36:48;97053.66;;;15.37;56.41
51123;BME280;37162;41.724;13.346;2023-01-30T00:39:14;97029.22;;;15.27;56.35
51123;BME280;37162;41.724;13.346;2023-01-30T00:41:39;97049.75;;;15.33;56.40
51123;BME280;37162;41.724;13.346;2023-01-30T00:44:23;97046.28;;;15.32;56.42
51123;BME280;37162;41.724;13.346;2023-01-30T00:47:07;97050.59;;;15.33;56.55
51123;BME280;37162;41.724;13.346;2023-01-30T00:49:34;97040.53;;;15.29;56.35
51123;BME280;37162;41.724;13.346;2023-01-30T00:52:01;97052.44;;;15.33;56.39
51123;BME280;37162;41.724;13.346;2023-01-30T00:54:26;97040.16;;;15.25;56.50
51123;BME280;37162;41.724;13.346;2023-01-30T00:56:51;97047.31;;;15.31;56.58
51123;BME280;37162;41.724;13.346;2023-01-30T00:59:17;97019.81;;;15.18;56.42
51123;BME280;37162;41.724;13.346;2023-01-30T01:01:42;97051.84;;;15.31;56.55
51123;BME280;37162;41.724;13.346;2023-01-30T01:04:08;97051.63;;;15.32;56.40
51123;BME280;37162;41.724;13.346;2023-01-30T01:06:35;97039.50;;;15.30;56.42
51123;BME280;37162;41.724;13.346;2023-01-30T01:09:01;97041.56;;;15.28;56.51
51123;BME280;37162;41.724;13.346;2023-01-30T01:11:26;96988.63;;;14.98;56.46
51123;BME280;37162;41.724;13.346;2023-01-30T01:13:53;97048.75;;;15.34;56.81
51123;BME280;37162;41.724;13.346;2023-01-30T01:16:19;97041.38;;;15.29;56.75
51123;BME280;37162;41.724;13.346;2023-01-30T01:18:45;97036.66;;;15.25;56.73
51123;BME280;37162;41.724;13.346;2023-01-30T01:21:10;97032.13;;;15.25;56.53
51123;BME280;37162;41.724;13.346;2023-01-30T01:23:37;97040.72;;;15.34;56.41
51123;BME280;37162;41.724;13.346;2023-01-30T01:26:03;97043.41;;;15.34;56.46
51123;BME280;37162;41.724;13.346;2023-01-30T01:28:28;97039.88;;;15.33;56.54
51123;BME280;37162;41.724;13.346;2023-01-30T01:30:54;97037.19;;;15.33;56.47
51123;BME280;37162;41.724;13.346;2023-01-30T01:33:19;97038.47;;;15.31;56.52
51123;BME280;37162;41.724;13.346;2023-01-30T01:35:45;97034.53;;;15.33;56.31
51123;BME280;37162;41.724;13.346;2023-01-30T01:38:12;97043.41;;;15.34;56.45
51123;BME280;37162;41.724;13.346;2023-01-30T01:40:37;97046.06;;;15.34;56.30
51123;BME280;37162;41.724;13.346;2023-01-30T01:43:23;97028.41;;;15.26;56.38
51123;BME280;37162;41.724;13.346;2023-01-30T01:46:17;97036.38;;;15.33;56.38
51123;BME280;37162;41.724;13.346;2023-01-30T01:48:47;97040.31;;;15.30;56.43
51123;BME280;37162;41.724;13.346;2023-01-30T01:54:21;97028.41;;;15.26;56.55
51123;BME280;37162;41.724;13.346;2023-01-30T01:56:45;97033.13;;;15.31;56.49
51123;BME280;37162;41.724;13.346;2023-01-30T01:59:18;97028.56;;;15.31;56.33
51123;BME280;37162;41.724;13.346;2023-01-30T02:01:46;97030.44;;;15.31;56.25
51123;BME280;37162;41.724;13.346;2023-01-30T02:04:12;97018.28;;;15.28;56.48
51123;BME280;37162;41.724;13.346;2023-01-30T02:06:39;97016.44;;;15.29;56.47
51123;BME280;37162;41.724;13.346;2023-01-30T02:09:08;97017.06;;;15.31;56.50
51123;BME280;37162;41.724;13.346;2023-01-30T02:11:45;97024.03;;;15.32;56.66
51123;BME280;37162;41.724;13.346;2023-01-30T02:14:12;97017.69;;;15.26;56.67
51123;BME280;37162;41.724;13.346;2023-01-30T02:16:39;97017.88;;;15.31;56.67
51123;BME280;37162;41.724;13.346;2023-01-30T02:30:42;97011.06;;;15.29;56.67
51123;BME280;37162;41.724;13.346;2023-01-30T02:33:22;97005.72;;;15.29;56.44
51123;BME280;37162;41.724;13.346;2023-01-30T02:35:57;97007.59;;;15.28;56.44
51123;BME280;37162;41.724;13.346;2023-01-30T02:38:49;97009.44;;;15.28;56.28
51123;BME280;37162;41.724;13.346;2023-01-30T02:44:29;96988.31;;;15.20;56.11
51123;BME280;37162;41.724;13.346;2023-01-30T02:50:13;96996.28;;;15.26;56.38
51123;BME280;37162;41.724;13.346;2023-01-30T02:52:41;96980.09;;;15.15;56.33
51123;BME280;37162;41.724;13.346;2023-01-30T02:55:19;96986.44;;;15.20;56.40
51123;BME280;37162;41.724;13.346;2023-01-30T02:57:45;96989.94;;;15.21;56.36
51123;BME280;37162;41.724;13.346;2023-01-30T03:00:11;96996.50;;;15.25;56.23
51123;BME280;37162;41.724;13.346;2023-01-30T03:08:28;96995.69;;;15.24;56.37
51123;BME280;37162;41.724;13.346;2023-01-30T03:11:00;96999.38;;;15.23;56.33
51123;BME280;37162;41.724;13.346;2023-01-30T03:16:21;96988.91;;;15.22;56.12
51123;BME280;37162;41.724;13.346;2023-01-30T03:18:49;96993.22;;;15.23;56.38
51123;BME280;37162;41.724;13.346;2023-01-30T03:21:14;96993.84;;;15.25;56.44
51123;BME280;37162;41.724;13.346;2023-01-30T03:23:40;96998.16;;;15.26;56.60
51123;BME280;37162;41.724;13.346;2023-01-30T03:26:11;96998.97;;;15.26;56.59
51123;BME280;37162;41.724;13.346;2023-01-30T03:28:39;97004.31;;;15.26;56.84
51123;BME280;37162;41.724;13.346;2023-01-30T03:31:05;96976.00;;;15.12;56.58
51123;BME280;37162;41.724;13.346;2023-01-30T03:33:30;96969.03;;;15.04;56.39
51123;BME280;37162;41.724;13.346;2023-01-30T03:35:56;96992.78;;;15.26;56.52
51123;BME280;37162;41.724;13.346;2023-01-30T03:38:21;96989.72;;;15.22;56.25
51123;BME280;37162;41.724;13.346;2023-01-30T03:40:47;96990.94;;;15.26;56.42
51123;BME280;37162;41.724;13.346;2023-01-30T03:43:12;96969.56;;;15.20;56.47
51123;BME280;37162;41.724;13.346;2023-01-30T03:45:38;96976.56;;;15.21;56.35
51123;BME280;37162;41.724;13.346;2023-01-30T03:48:03;96983.94;;;15.25;56.30
51123;BME280;37162;41.724;13.346;2023-01-30T03:50:29;96976.56;;;15.21;56.25
51123;BME280;37162;41.724;13.346;2023-01-30T03:52:54;96973.25;;;15.25;56.37
51123;BME280;37162;41.724;13.346;2023-01-30T03:55:20;96955.19;;;15.14;56.33
51123;BME280;37162;41.724;13.346;2023-01-30T03:57:45;96947.97;;;15.15;56.41
51123;BME280;37162;41.724;13.346;2023-01-30T04:00:11;96957.22;;;15.19;56.49
51123;BME280;37162;41.724;13.346;2023-01-30T04:02:36;96948.81;;;15.15;56.38
51123;BME280;37162;41.724;13.346;2023-01-30T04:05:03;96965.41;;;15.24;56.34
51123;BME280;37162;41.724;13.346;2023-01-30T04:07:29;96949.00;;;15.14;56.21
51123;BME280;37162;41.724;13.346;2023-01-30T04:09:54;96947.59;;;15.11;56.28
51123;BME280;37162;41.724;13.346;2023-01-30T04:12:20;96972.84;;;15.22;56.41
51123;BME280;37162;41.724;13.346;2023-01-30T04:14:46;96964.66;;;15.17;56.29
51123;BME280;37162;41.724;13.346;2023-01-30T04:17:11;96966.44;;;15.23;56.22
51123;BME280;37162;41.724;13.346;2023-01-30T04:19:37;96965.63;;;15.22;56.27
51123;BME280;37162;41.724;13.346;2023-01-30T04:22:02;96950.44;;;15.16;56.29
51123;BME280;37162;41.724;13.346;2023-01-30T04:24:27;96962.97;;;15.22;56.46
51123;BME280;37162;41.724;13.346;2023-01-30T04:26:53;96958.66;;;15.21;56.29
51123;BME280;37162;41.724;13.346;2023-01-30T04:29:18;96952.25;;;15.22;56.36
51123;BME280;37162;41.724;13.346;2023-01-30T04:31:43;96948.75;;;15.22;56.41
51123;BME280;37162;41.724;13.346;2023-01-30T04:34:09;96930.75;;;15.11;56.28
51123;BME280;37162;41.724;13.346;2023-01-30T04:36:34;96949.56;;;15.22;56.41
51123;BME280;37162;41.724;13.346;2023-01-30T04:39:01;96947.94;;;15.21;56.41
51123;BME280;37162;41.724;13.346;2023-01-30T04:41:26;96948.16;;;15.20;56.23
51123;BME280;37162;41.724;13.346;2023-01-30T04:43:52;96937.06;;;15.16;56.16
51123;BME280;37162;41.724;13.346;2023-01-30T04:46:17;96942.81;;;15.20;56.08
51123;BME280;37162;41.724;13.346;2023-01-30T04:48:42;96940.97;;;15.20;56.19
51123;BME280;37162;41.724;13.346;2023-01-30T04:51:08;96943.63;;;15.20;56.46
51123;BME280;37162;41.724;13.346;2023-01-30T04:53:33;96946.09;;;15.22;57.20
51123;BME280;37162;41.724;13.346;2023-01-30T04:55:59;96935.22;;;15.17;56.74
51123;BME280;37162;41.724;13.346;2023-01-30T04:58:24;96932.31;;;15.18;56.41
51123;BME280;37162;41.724;13.346;2023-01-30T05:00:50;96927.59;;;15.14;56.39
51123;BME280;37162;41.724;13.346;2023-01-30T05:03:15;96937.47;;;15.20;56.33
51123;BME280;37162;41.724;13.346;2023-01-30T05:05:41;96930.25;;;15.20;56.12
51123;BME280;37162;41.724;13.346;2023-01-30T05:08:06;96915.09;;;15.07;56.34
51123;BME280;37162;41.724;13.346;2023-01-30T05:10:32;96924.72;;;15.15;56.26
51123;BME280;37162;41.724;13.346;2023-01-30T05:13:02;96919.00;;;15.05;56.32
51123;BME280;37162;41.724;13.346;2023-01-30T05:15:27;96932.13;;;15.20;56.25
51123;BME280;37162;41.724;13.346;2023-01-30T05:17:53;96925.97;;;15.13;56.27
51123;BME280;37162;41.724;13.346;2023-01-30T05:20:18;96921.84;;;15.10;56.36
51123;BME280;37162;41.724;13.346;2023-01-30T05:22:43;96933.94;;;15.19;56.34
51123;BME280;37162;41.724;13.346;2023-01-30T05:25:09;96921.03;;;15.09;56.38
51123;BME280;37162;41.724;13.346;2023-01-30T05:27:34;96932.13;;;15.13;56.15
51123;BME280;37162;41.724;13.346;2023-01-30T05:30:00;96882.09;;;14.89;56.56
51123;BME280;37162;41.724;13.346;2023-01-30T05:32:25;96939.09;;;15.21;56.68
51123;BME280;37162;41.724;13.346;2023-01-30T05:34:51;96932.94;;;15.20;56.62
51123;BME280;37162;41.724;13.346;2023-01-30T05:37:16;96941.53;;;15.22;56.73
51123;BME280;37162;41.724;13.346;2023-01-30T05:39:42;96940.97;;;15.20;56.62
51123;BME280;37162;41.724;13.346;2023-01-30T05:42:07;96930.44;;;15.19;56.58
51123;BME280;37162;41.724;13.346;2023-01-30T05:44:33;96940.72;;;15.22;56.32
51123;BME280;37162;41.724;13.346;2023-01-30T05:46:58;96935.59;;;15.20;56.47
51123;BME280;37162;41.724;13.346;2023-01-30T05:49:23;96930.50;;;15.12;56.47
51123;BME280;37162;41.724;13.346;2023-01-30T05:51:49;96940.97;;;15.20;56.28
51123;BME280;37162;41.724;13.346;2023-01-30T05:54:14;96937.47;;;15.20;56.35
51123;BME280;37162;41.724;13.346;2023-01-30T05:56:40;96936.63;;;15.19;56.35
51123;BME280;37162;41.724;13.346;2023-01-30T05:59:05;96906.09;;;15.02;56.31
51123;BME280;37162;41.724;13.346;2023-01-30T06:01:31;96898.31;;;14.94;56.39
51123;BME280;37162;41.724;13.346;2023-01-30T06:03:57;96944.06;;;15.17;56.49
51123;BME280;37162;41.724;13.346;2023-01-30T06:06:23;96939.94;;;15.15;56.41
51123;BME280;37162;41.724;13.346;2023-01-30T06:08:54;96938.13;;;15.15;56.34
51123;BME280;37162;41.724;13.346;2023-01-30T06:11:20;96944.72;;;15.13;56.39
51123;BME280;37162;41.724;13.346;2023-01-30T06:13:46;96945.53;;;15.13;56.51
51123;BME280;37162;41.724;13.346;2023-01-30T06:16:14;96948.19;;;15.13;56.53
51123;BME280;37162;41.724;13.346;2023-01-30T06:18:39;96942.91;;;15.06;56.59
51123;BME280;37162;41.724;13.346;2023-01-30T06:21:05;96949.47;;;15.11;56.51
51123;BME280;37162;41.724;13.346;2023-01-30T06:23:31;96946.97;;;15.09;56.64
51123;BME280;37162;41.724;13.346;2023-01-30T06:25:57;96948.63;;;15.10;56.61
51123;BME280;37162;41.724;13.346;2023-01-30T06:28:23;96932.69;;;14.90;56.17
51123;BME280;37162;41.724;13.346;2023-01-30T06:30:50;96958.50;;;15.09;56.56
51123;BME280;37162;41.724;13.346;2023-01-30T06:33:15;96948.25;;;15.06;56.47
51123;BME280;37162;41.724;13.346;2023-01-30T06:35:42;96959.31;;;15.10;56.48
51123;BME280;37162;41.724;13.346;2023-01-30T06:38:08;96962.84;;;15.11;56.62
51123;BME280;37162;41.724;13.346;2023-01-30T06:40:36;96965.53;;;15.11;56.38
51123;BME280;37162;41.724;13.346;2023-01-30T06:43:01;96964.31;;;15.06;56.31
51123;BME280;37162;41.724;13.346;2023-01-30T06:45:27;96955.28;;;15.01;56.50
51123;BME280;37162;41.724;13.346;2023-01-30T06:47:54;96971.47;;;15.13;56.63
51123;BME280;37162;41.724;13.346;2023-01-30T06:50:24;96959.97;;;15.05;56.42
51123;BME280;37162;41.724;13.346;2023-01-30T06:52:51;96981.13;;;15.14;56.25
51123;BME280;37162;41.724;13.346;2023-01-30T06:55:19;96986.47;;;15.14;56.17
51123;BME280;37162;41.724;13.346;2023-01-30T06:57:45;96985.44;;;15.15;56.29
51123;BME280;37162;41.724;13.346;2023-01-30T07:00:13;96981.94;;;15.14;56.14
51123;BME280;37162;41.724;13.346;2023-01-30T07:02:39;96983.00;;;15.13;56.21
51123;BME280;37162;41.724;13.346;2023-01-30T07:05:06;96979.53;;;15.06;56.26
51123;BME280;37162;41.724;13.346;2023-01-30T07:07:32;96982.41;;;15.11;56.17
51123;BME280;37162;41.724;13.346;2023-01-30T07:09:59;96993.28;;;15.16;56.20
51123;BME280;37162;41.724;13.346;2023-01-30T07:12:25;96992.22;;;15.17;56.11
51123;BME280;37162;41.724;13.346;2023-01-30T07:14:51;96996.53;;;15.18;56.32
51123;BME280;37162;41.724;13.346;2023-01-30T07:17:18;96998.16;;;15.19;56.11
51123;BME280;37162;41.724;13.346;2023-01-30T07:19:43;96990.59;;;15.16;56.14
51123;BME280;37162;41.724;13.346;2023-01-30T07:22:09;96981.75;;;15.16;55.90
51123;BME280;37162;41.724;13.346;2023-01-30T07:24:35;96996.53;;;15.18;55.94
51123;BME280;37162;41.724;13.346;2023-01-30T07:27:00;96994.69;;;15.19;55.98
51123;BME280;37162;41.724;13.346;2023-01-30T07:29:26;96993.03;;;15.24;56.04
51123;BME280;37162;41.724;13.346;2023-01-30T07:31:51;96993.84;;;15.25;55.89
51123;BME280;37162;41.724;13.346;2023-01-30T07:34:17;96997.75;;;15.22;55.99
51123;BME280;37162;41.724;13.346;2023-01-30T07:36:42;96989.50;;;15.24;56.04
51123;BME280;37162;41.724;13.346;2023-01-30T07:39:08;96994.19;;;15.28;55.98
51123;BME280;37162;41.724;13.346;2023-01-30T07:41:34;96987.84;;;15.29;56.12
51123;BME280;37162;41.724;13.346;2023-01-30T07:44:00;96964.88;;;15.15;55.97
51123;BME280;37162;41.724;13.346;2023-01-30T07:46:25;96993.34;;;15.34;56.04
51123;BME280;37162;41.724;13.346;2023-01-30T07:48:51;96988.19;;;15.33;55.95
51123;BME280;37162;41.724;13.346;2023-01-30T07:51:16;97000.50;;;15.41;55.87
51123;BME280;37162;41.724;13.346;2023-01-30T07:53:42;97007.50;;;15.42;55.50
51123;BME280;37162;41.724;13.346;2023-01-30T07:56:08;97007.06;;;15.45;55.58
51123;BME280;37162;41.724;13.346;2023-01-30T07:58:34;96996.78;;;15.42;55.05
51123;BME280;37162;41.724;13.346;2023-01-30T08:01:00;96999.22;;;15.50;54.44
51123;BME280;37162;41.724;13.346;2023-01-30T08:03:25;97005.38;;;15.50;54.08
51123;BME280;37162;41.724;13.346;2023-01-30T08:05:51;97014.78;;;15.59;53.84
51123;BME280;37162;41.724;13.346;2023-01-30T08:08:18;97015.19;;;15.63;53.78
51123;BME280;37162;41.724;13.346;2023-01-30T08:10:47;97014.75;;;15.66;53.63
51123;BME280;37162;41.724;13.346;2023-01-30T08:13:13;97024.00;;;15.70;53.58
51123;BME280;37162;41.724;13.346;2023-01-30T08:15:38;97006.94;;;15.65;53.68
51123;BME280;37162;41.724;13.346;2023-01-30T08:18:04;96999.72;;;15.65;53.68
51123;BME280;37162;41.724;13.346;2023-01-30T08:20:32;97010.94;;;15.80;53.77
51123;BME280;37162;41.724;13.346;2023-01-30T08:22:58;97008.88;;;15.82;53.70
51123;BME280;37162;41.724;13.346;2023-01-30T08:25:24;97016.47;;;15.86;53.88
51123;BME280;37162;41.724;13.346;2023-01-30T08:27:50;97014.16;;;15.89;53.74
51123;BME280;37162;41.724;13.346;2023-01-30T08:30:16;97008.78;;;15.89;53.65
51123;BME280;37162;41.724;13.346;2023-01-30T08:32:41;97015.97;;;15.95;53.63
51123;BME280;37162;41.724;13.346;2023-01-30T08:35:07;97018.19;;;15.98;53.75
51123;BME280;37162;41.724;13.346;2023-01-30T08:37:33;97015.91;;;16.02;53.64
51123;BME280;37162;41.724;13.346;2023-01-30T08:39:58;97015.66;;;16.03;53.65
51123;BME280;37162;41.724;13.346;2023-01-30T08:42:24;97017.50;;;16.09;53.64
51123;BME280;37162;41.724;13.346;2023-01-30T08:44:49;96993.03;;;15.99;53.40
51123;BME280;37162;41.724;13.346;2023-01-30T08:47:15;96998.50;;;16.11;53.57
51123;BME280;37162;41.724;13.346;2023-01-30T08:49:40;96989.50;;;16.05;53.61
51123;BME280;37162;41.724;13.346;2023-01-30T08:52:06;97011.16;;;16.22;53.60
51123;BME280;37162;41.724;13.346;2023-01-30T08:54:31;97011.53;;;16.26;53.59
51123;BME280;37162;41.724;13.346;2023-01-30T08:56:56;97005.75;;;16.29;53.73
51123;BME280;37162;41.724;13.346;2023-01-30T08:59:22;96989.94;;;16.21;54.01
51123;BME280;37162;41.724;13.346;2023-01-30T09:01:47;96997.25;;;16.32;54.17
51123;BME280;37162;41.724;13.346;2023-01-30T09:04:13;96997.03;;;16.33;54.22
51123;BME280;37162;41.724;13.346;2023-01-30T09:06:38;97003.13;;;16.41;54.29
51123;BME280;37162;41.724;13.346;2023-01-30T09:09:03;96993.03;;;16.43;54.14
51123;BME280;37162;41.724;13.346;2023-01-30T09:11:29;96979.28;;;16.32;54.05
51123;BME280;37162;41.724;13.346;2023-01-30T09:13:54;97002.03;;;16.48;54.08
51123;BME280;37162;41.724;13.346;2023-01-30T09:16:20;97000.75;;;16.51;54.29
51123;BME280;37162;41.724;13.346;2023-01-30T09:18:45;97001.34;;;16.53;54.27
51123;BME280;37162;41.724;13.346;2023-01-30T09:21:12;97002.53;;;16.57;54.03
51123;BME280;37162;41.724;13.346;2023-01-30T09:23:38;96985.25;;;16.53;54.07
51123;BME280;37162;41.724;13.346;2023-01-30T09:26:04;96991.16;;;16.61;53.89
51123;BME280;37162;41.724;13.346;2023-01-30T09:28:30;96985.53;;;16.63;53.89
51123;BME280;37162;41.724;13.346;2023-01-30T09:30:56;96979.00;;;16.59;54.04
51123;BME280;37162;41.724;13.346;2023-01-30T09:33:22;97005.28;;;16.69;54.03
51123;BME280;37162;41.724;13.346;2023-01-30T09:35:48;96980.41;;;16.61;54.12
51123;BME280;37162;41.724;13.346;2023-01-30T09:38:14;96971.09;;;16.64;53.91
51123;BME280;37162;41.724;13.346;2023-01-30T09:43:21;96992.19;;;16.79;54.16
51123;BME280;37162;41.724;13.346;2023-01-30T09:45:54;96989.88;;;16.82;54.02
51123;BME280;37162;41.724;13.346;2023-01-30T09:48:26;96988.59;;;16.85;53.96
51123;BME280;37162;41.724;13.346;2023-01-30T09:56:00;96988.38;;;16.86;53.59
51123;BME280;37162;41.724;13.346;2023-01-30T09:58:36;96997.50;;;16.97;53.08
51123;BME280;37162;41.724;13.346;2023-01-30T10:01:14;96992.75;;;16.99;52.76
51123;BME280;37162;41.724;13.346;2023-01-30T10:04:14;96994.97;;;17.02;52.77
51123;BME280;37162;41.724;13.346;2023-01-30T10:07:04;96991.25;;;17.03;52.77
51123;BME280;37162;41.724;13.346;2023-01-30T10:18:01;96971.63;;;17.03;51.97
51123;BME280;37162;41.724;13.346;2023-01-30T10:26:22;96966.19;;;17.09;52.62
51123;BME280;37162;41.724;13.346;2023-01-30T10:29:02;96962.19;;;17.12;52.33
51123;BME280;37162;41.724;13.346;2023-01-30T10:32:23;96950.16;;;17.03;52.80
51123;BME280;37162;41.724;13.346;2023-01-30T10:34:24;96960.94;;;17.15;52.68
51123;BME280;37162;41.724;13.346;2023-01-30T10:37:21;96962.56;;;17.16;52.81
51123;BME280;37162;41.724;13.346;2023-01-30T10:42:20;96950.44;;;17.13;52.63
51123;BME280;37162;41.724;13.346;2023-01-30T10:44:48;96930.69;;;17.07;52.31
51123;BME280;37162;41.724;13.346;2023-01-30T10:47:38;96939.00;;;17.18;52.45
51123;BME280;37162;41.724;13.346;2023-01-30T10:50:18;96938.53;;;17.21;52.59
51123;BME280;37162;41.724;13.346;2023-01-30T10:53:18;96940.53;;;17.25;52.46
51123;BME280;37162;41.724;13.346;2023-01-30T10:55:50;96929.78;;;17.25;52.17
51123;BME280;37162;41.724;13.346;2023-01-30T10:58:38;96923.97;;;17.28;52.15
51123;BME280;37162;41.724;13.346;2023-01-30T11:03:52;96910.91;;;17.32;52.38
51123;BME280;37162;41.724;13.346;2023-01-30T11:06:24;96899.09;;;17.33;52.40
51123;BME280;37162;41.724;13.346;2023-01-30T11:08:51;96900.50;;;17.35;52.40
51123;BME280;37162;41.724;13.346;2023-01-30T11:13:47;96903.53;;;17.39;52.56
51123;BME280;37162;41.724;13.346;2023-01-30T11:16:14;96891.28;;;17.31;52.61
51123;BME280;37162;41.724;13.346;2023-01-30T11:18:48;96903.09;;;17.42;52.52
51123;BME280;37162;41.724;13.346;2023-01-30T11:21:30;96883.00;;;17.33;52.23
51123;BME280;37162;41.724;13.346;2023-01-30T11:24:03;96884.75;;;17.39;52.12
51123;BME280;37162;41.724;13.346;2023-01-30T11:26:33;96877.88;;;17.43;51.98
51123;BME280;37162;41.724;13.346;2023-01-30T11:29:36;96882.19;;;17.44;51.68
51123;BME280;37162;41.724;13.346;2023-01-30T11:32:03;96867.56;;;17.40;51.87
51123;BME280;37162;41.724;13.346;2023-01-30T11:34:30;96857.06;;;17.38;51.88
51123;BME280;37162;41.724;13.346;2023-01-30T11:42:57;96838.50;;;17.37;51.80
51123;BME280;37162;41.724;13.346;2023-01-30T11:45:24;96827.78;;;17.37;51.84
51123;BME280;37162;41.724;13.346;2023-01-30T11:47:56;96828.47;;;17.44;52.04
51123;BME280;37162;41.724;13.346;2023-01-30T11:50:28;96831.03;;;17.51;52.03
51123;BME280;37162;41.724;13.346;2023-01-30T11:52:54;96824.50;;;17.47;51.93
51123;BME280;37162;41.724;13.346;2023-01-30T11:55:20;96774.31;;;17.24;51.85
51123;BME280;37162;41.724;13.346;2023-01-30T11:57:49;96815.50;;;17.53;51.67
51123;BME280;37162;41.724;13.346;2023-01-30T12:00:19;96812.81;;;17.53;51.57
51123;BME280;37162;41.724;13.346;2023-01-30T12:02:48;96804.41;;;17.49;51.39
51123;BME280;37162;41.724;13.346;2023-01-30T12:05:30;96794.94;;;17.47;51.49
51123;BME280;37162;41.724;13.346;2023-01-30T12:08:41;96784.09;;;17.42;51.54
51123;BME280;37162;41.724;13.346;2023-01-30T12:11:24;96785.97;;;17.41;51.42
51123;BME280;37162;41.724;13.346;2023-01-30T12:13:52;96779.53;;;17.42;51.51
51123;BME280;37162;41.724;13.346;2023-01-30T12:19:00;96769.63;;;17.43;51.87
51123;BME280;37162;41.724;13.346;2023-01-30T12:21:49;96761.81;;;17.41;51.47
51123;BME280;37162;41.724;13.346;2023-01-30T12:26:57;96732.41;;;17.23;51.67
51123;BME280;37162;41.724;13.346;2023-01-30T12:29:37;96724.44;;;17.16;51.84
51123;BME280;37162;41.724;13.346;2023-01-30T12:32:14;96748.63;;;17.28;51.97
51123;BME280;37162;41.724;13.346;2023-01-30T12:34:41;96747.44;;;17.24;51.77
51123;BME280;37162;41.724;13.346;2023-01-30T12:37:32;96753.88;;;17.23;52.04
51123;BME280;37162;41.724;13.346;2023-01-30T12:40:24;96747.09;;;17.20;51.93
51123;BME280;37162;41.724;13.346;2023-01-30T12:48:49;96729.38;;;16.96;51.95
51123;BME280;37162;41.724;13.346;2023-01-30T13:07:41;96734.13;;;16.70;54.56
51123;BME280;37162;41.724;13.346;2023-01-30T13:10:32;96714.75;;;16.56;54.73
51123;BME280;37162;41.724;13.346;2023-01-30T13:13:12;96726.28;;;16.57;54.64
51123;BME280;37162;41.724;13.346;2023-01-30T13:18:22;96705.63;;;16.46;54.44
51123;BME280;37162;41.724;13.346;2023-01-30T13:21:20;96695.47;;;16.36;54.47
51123;BME280;37162;41.724;13.346;2023-01-30T13:26:27;96700.25;;;16.34;54.52
51123;BME280;37162;41.724;13.346;2023-01-30T13:28:57;96692.09;;;16.29;54.51
51123;BME280;37162;41.724;13.346;2023-01-30T13:31:27;96671.16;;;16.07;54.53
51123;BME280;37162;41.724;13.346;2023-01-30T13:34:19;96691.97;;;16.24;54.69
51123;BME280;37162;41.724;13.346;2023-01-30T13:36:52;96692.66;;;16.19;55.00
51123;BME280;37162;41.724;13.346;2023-01-30T13:39:29;96675.47;;;16.08;55.06
51123;BME280;37162;41.724;13.346;2023-01-30T13:41:58;96680.00;;;16.08;55.06
51123;BME280;37162;41.724;13.346;2023-01-30T13:44:28;96684.31;;;16.09;55.20
51123;BME280;37162;41.724;13.346;2023-01-30T13:46:56;96689.69;;;16.09;55.31
51123;BME280;37162;41.724;13.346;2023-01-30T13:49:43;96686.88;;;16.04;55.30
51123;BME280;37162;41.724;13.346;2023-01-30T13:55:27;96659.00;;;15.93;55.62
51123;BME280;37162;41.724;13.346;2023-01-30T14:00:52;96663.09;;;15.96;55.74
51123;BME280;37162;41.724;13.346;2023-01-30T14:03:37;96656.09;;;15.95;55.97
51123;BME280;37162;41.724;13.346;2023-01-30T14:08:55;96656.56;;;15.92;56.22
51123;BME280;37162;41.724;13.346;2023-01-30T14:11:47;96665.41;;;15.92;56.50
51123;BME280;37162;41.724;13.346;2023-01-30T14:16:54;96667.50;;;15.90;56.52
51123;BME280;37162;41.724;13.346;2023-01-30T14:21:56;96663.41;;;15.88;56.18
51123;BME280;37162;41.724;13.346;2023-01-30T14:24:23;96681.59;;;15.86;56.15
51123;BME280;37162;41.724;13.346;2023-01-30T14:32:33;96694.81;;;15.80;56.49
51123;BME280;37162;41.724;13.346;2023-01-30T14:39:59;96689.19;;;15.70;56.28
51123;BME280;37162;41.724;13.346;2023-01-30T14:42:29;96705.19;;;15.77;56.56
51123;BME280;37162;41.724;13.346;2023-01-30T14:45:09;96705.41;;;15.75;56.47
51123;BME280;37162;41.724;13.346;2023-01-30T14:47:37;96689.00;;;15.72;56.65
51123;BME280;37162;41.724;13.346;2023-01-30T14:50:20;96692.25;;;15.74;56.65
51123;BME280;37162;41.724;13.346;2023-01-30T14:52:47;96687.34;;;15.71;56.87
51123;BME280;37162;41.724;13.346;2023-01-30T14:55:21;96689.81;;;15.72;56.69
51123;BME280;37162;41.724;13.346;2023-01-30T14:57:54;96690.50;;;15.68;56.74
51123;BME280;37162;41.724;13.346;2023-01-30T15:00:25;96691.69;;;15.72;56.80
51123;BME280;37162;41.724;13.346;2023-01-30T15:03:06;96680.06;;;15.59;56.76